Bookmark and Share
Track history (hours):
 

Dr.kaiyo

Last reported at 2014-Apr-16 05:04 UTC. Time now 2014-Apr-16 10:36 UTC.
Position N 34°41' E 135°12'.

Length 31 m.

Type: Other ship. MMSI: 431301823.

NotesDate/timePositionNaut miles runAvg speedWind from/ knotsBaromVisibWave heightAir tempDewpointWater temp
2014-Apr-16 05:04N 34°41' E 135°12'0 0.3
2014-Apr-16 04:33N 34°42' E 135°12'3 2.9
2014-Apr-16 03:33N 34°39' E 135°12'2 2.0
2014-Apr-16 02:33N 34°37' E 135°12'6 5.9
2014-Apr-16 01:33N 34°31' E 135°11'8 7.5
2014-Apr-16 00:33N 34°34' E 135°20'10 9.9
2014-Apr-15 23:33N 34°41' E 135°12'1 0.0
2014-Apr-15 05:34N 34°41' E 135°13'19 9.1
2014-Apr-15 03:31N 34°23' E 135°11'1010.8
2014-Apr-15 02:34N 34°28' E 135°01'1212.3
2014-Apr-15 01:34N 34°38' E 135°09'4 4.3
2014-Apr-15 00:34N 34°41' E 135°12'0 0.0
2014-Apr-14 23:34N 34°41' E 135°12'0 0.0
2014-Apr-14 22:33N 34°41' E 135°12'1 0.1
2014-Apr-14 05:33N 34°40' E 135°12'  
2014-Apr-11 05:32N 34°41' E 135°12'6 6.4
2014-Apr-11 04:33N 34°36' E 135°16'5 5.3
2014-Apr-11 03:33N 34°35' E 135°22'5 4.5
2014-Apr-11 02:33N 34°30' E 135°20'1211.6
2014-Apr-11 01:33N 34°24' E 135°08'1010.5
2014-Apr-11 00:33N 34°34' E 135°10'7 7.4
2014-Apr-10 23:33N 34°41' E 135°12'0 0.0
2014-Apr-10 07:14N 34°41' E 135°12'3 3.8
2014-Apr-10 06:33N 34°40' E 135°15'1111.2
2014-Apr-10 05:33N 34°32' E 135°05'9 8.6
2014-Apr-10 04:33N 34°30' E 135°15'2 1.4
2014-Apr-10 03:08N 34°28' E 135°17'5 7.9
2014-Apr-10 02:33N 34°28' E 135°12'7 6.4
2014-Apr-10 01:31N 34°23' E 135°07'1010.5
2014-Apr-10 00:34N 34°33' E 135°09'9 0.5
2014-Apr-09 06:32N 34°41' E 135°12'7 6.7
2014-Apr-09 05:33N 34°35' E 135°13'5 5.4
2014-Apr-09 04:34N 34°29' E 135°13'4 3.3
2014-Apr-09 03:20N 34°29' E 135°17'4 4.5
2014-Apr-09 02:33N 34°29' E 135°13'7 6.9
2014-Apr-09 01:33N 34°32' E 135°06'6 5.7
2014-Apr-09 00:34N 34°34' E 135°13'8 7.6
2014-Apr-08 23:33N 34°41' E 135°12'0 0.0
2014-Apr-08 05:28N 34°41' E 135°12'7 7.6
2014-Apr-08 04:33N 34°35' E 135°14'3 2.9
2014-Apr-08 03:33N 34°32' E 135°13'6 6.0
2014-Apr-08 02:33N 34°28' E 135°08'1 0.7
2014-Apr-08 01:33N 34°28' E 135°08'6 6.1
2014-Apr-08 00:34N 34°34' E 135°11'8 0.4
2014-Apr-07 06:23N 34°41' E 135°12'6 6.7
2014-Apr-07 05:33N 34°37' E 135°09'7 7.3
2014-Apr-07 04:33N 34°30' E 135°13'3 3.2
2014-Apr-07 03:33N 34°30' E 135°17'6 6.3
2014-Apr-07 02:33N 34°30' E 135°09'5 4.5
2014-Apr-07 01:33N 34°34' E 135°06'9 8.8
2014-Apr-07 00:34N 34°35' E 135°16'7 7.2
2014-Apr-06 23:33N 34°41' E 135°12'  

Dump ship's entire track history

sailing weather and tide predictions

Dr.kaiyo — JD2325 — position and weather